createdAt,value
2017-07-24T00:00:03.536Z,17.2
2017-07-24T00:15:03.183Z,17.4
2017-07-24T00:30:02.901Z,17.1
2017-07-24T00:45:03.511Z,17.2
2017-07-24T01:00:03.228Z,17.2
2017-07-24T01:15:03.192Z,17.1
2017-07-24T01:30:03.548Z,17
2017-07-24T01:45:02.877Z,17.1
2017-07-24T02:00:08.829Z,16.8
2017-07-24T02:15:03.419Z,16.7
2017-07-24T02:30:03.606Z,17
2017-07-24T02:45:03.281Z,16.9
2017-07-24T03:00:02.952Z,17
2017-07-24T03:15:02.663Z,16.9
2017-07-24T03:30:04.495Z,16.8
2017-07-24T03:45:03.392Z,16.8
2017-07-24T04:00:05.947Z,16.9
2017-07-24T04:15:04.127Z,16.8
2017-07-24T04:30:06.777Z,16.7
2017-07-24T04:45:05.672Z,16.5
2017-07-24T05:00:06.803Z,16.2
2017-07-24T05:15:06.107Z,16.3
2017-07-24T05:30:06.603Z,16.1
2017-07-24T05:45:06.247Z,16.2
2017-07-24T06:00:09.899Z,16.8
2017-07-24T06:15:05.546Z,16.8
2017-07-24T06:30:06.778Z,16.9
2017-07-24T06:45:05.641Z,17.2
2017-07-24T07:00:06.158Z,17.2
2017-07-24T07:15:04.474Z,17.1
2017-07-24T07:30:06.465Z,17.5
2017-07-24T07:45:06.323Z,17.7
2017-07-24T08:00:06.550Z,17.8
2017-07-24T08:15:07.164Z,17.8
2017-07-24T08:30:06.082Z,17.8
2017-07-24T08:45:06.157Z,18.1
2017-07-24T09:00:06.182Z,18.2
2017-07-24T09:15:06.268Z,18.2
2017-07-24T09:30:06.372Z,18.1
2017-07-24T09:45:05.942Z,18.2
2017-07-24T10:00:05.290Z,18.2
2017-07-24T10:15:06.212Z,18.2
2017-07-24T10:30:05.487Z,18.2
2017-07-24T10:45:05.990Z,18.4
2017-07-24T11:00:05.944Z,18.6
2017-07-24T11:15:04.647Z,18.4
2017-07-24T11:30:06.230Z,18.2
2017-07-24T11:45:04.971Z,18.8
2017-07-24T12:00:05.272Z,18.7
2017-07-24T12:15:05.016Z,18.8
2017-07-24T12:30:05.740Z,18.6
2017-07-24T12:45:06.048Z,18.4
2017-07-24T13:00:05.648Z,18
2017-07-24T13:15:06.258Z,17.9
2017-07-24T13:30:06.232Z,17.8
2017-07-24T13:45:05.588Z,17.7
2017-07-24T14:00:06.289Z,17.8
2017-07-24T14:15:05.272Z,17.8
2017-07-24T14:30:04.771Z,17.9
2017-07-24T14:45:05.244Z,15.8
2017-07-24T15:00:06.120Z,15.3
2017-07-24T15:15:05.445Z,15.8
2017-07-24T15:30:06.504Z,16.2
2017-07-24T15:45:06.781Z,15.9
2017-07-24T16:00:06.908Z,16
2017-07-24T16:15:05.462Z,16
2017-07-24T16:30:05.349Z,16
2017-07-24T16:45:06.631Z,16
2017-07-24T17:00:05.256Z,15.9
2017-07-24T17:15:05.434Z,15.9
2017-07-24T17:30:05.485Z,15.9
2017-07-24T17:45:05.325Z,15.8
2017-07-24T18:00:05.344Z,15.9
2017-07-24T18:15:06.600Z,15.8
2017-07-24T18:30:06.630Z,15.8
2017-07-24T18:45:06.499Z,15.5
2017-07-24T19:00:06.765Z,15.4
2017-07-24T19:15:04.702Z,15.4
2017-07-24T19:30:03.700Z,15.4
2017-07-24T19:45:03.359Z,15.3
2017-07-24T20:00:03.106Z,15.3
2017-07-24T20:15:02.760Z,14.6
2017-07-24T20:30:03.581Z,14.4
2017-07-24T20:45:03.207Z,14.4
2017-07-24T21:00:02.826Z,14.2
2017-07-24T21:15:03.529Z,14.2
2017-07-24T21:30:03.322Z,14.1
2017-07-24T21:45:02.901Z,13.8
2017-07-24T22:00:02.535Z,13.6
2017-07-24T22:15:03.178Z,13.4
2017-07-24T22:30:03.067Z,13.3
2017-07-24T22:45:02.768Z,13.1
2017-07-24T23:00:03.916Z,13
2017-07-24T23:15:02.721Z,13.1
2017-07-24T23:30:03.517Z,13.1
2017-07-24T23:45:03.503Z,13.1
